Test XHTML 1.0 Strict Page for WU-History Testing
Station Historical Data
 
Daily Summary for June 28, 2016 Units:  Both    English   Metric
« Previous Day
Next Day »
Daily Weekly Monthly Yearly Custom
  Current: High: Low: Average:
Temperature: 51.6 °F /  10.9 °C 64.2 °F /  17.9 °C 47.7 °F /  8.7 °C 54.2 °F /  12.3 °C
Dew Point: 51.6 °F /  10.9 °C 57.8 °F /  14.3 °C 47.7 °F /  8.7 °C 52.6 °F /  11.4 °C
Humidity: 100 % 100 % 68 % 95 %
Wind Speed: 0.0 mph /  0 km/h 11.5 mph /  18.5 km/h - 1.5 mph /  2.4 km/h
Wind Gust: 0.0 mph /  0 km/h 11.5 mph /  18.5 km/h - -
Wind:Calm - - SSE
Pressure: 29.77 in /  1008 hPa 30.11 in /  1019.5 hPa 29.76 in /  1007.7 hPa -
Precipitation: 0.16 in /  4.06 mm      
Historical Graphs
 
 
Weather-Above Climate History
Untitled
Tabular Data for June 28, 2016
Time Temperature Dew Point Pressure Wind Wind Speed Wind Gust Humidity Rainfall Rate (Hourly) solar Conditions
00:04 51.3 °F /  10.7 °C 50.4 °F /  10.2 °C 30.11 in /  1019.5 hPa Calm     97 % 0.00 in /  0 mm 0.0 W/m2 CLR
00:09 51.1 °F /  10.6 °C 50.3 °F /  10.2 °C 30.10 in /  1019.2 hPa Calm     97 % 0.00 in /  0 mm 0.0 W/m2 CLR
00:15 50.9 °F /  10.5 °C 50.4 °F /  10.2 °C 30.10 in /  1019.2 hPa Calm     98 % 0.00 in /  0 mm 0.0 W/m2 CLR
00:25 50.5 °F /  10.3 °C 50.3 °F /  10.2 °C 30.11 in /  1019.5 hPa Calm     99 % 0.00 in /  0 mm 0.0 W/m2 CLR
00:30 50.4 °F /  10.2 °C 50.1 °F /  10.1 °C 30.11 in /  1019.5 hPa Calm     99 % 0.00 in /  0 mm 0.0 W/m2 CLR
00:35 50.0 °F /  10 °C 49.7 °F /  9.8 °C 30.11 in /  1019.5 hPa Calm     99 % 0.00 in /  0 mm 0.0 W/m2 CLR
00:40 49.8 °F /  9.9 °C 49.8 °F /  9.9 °C 30.10 in /  1019.2 hPa Calm     100 % 0.00 in /  0 mm 0.0 W/m2 CLR
00:45 50.4 °F /  10.2 °C 50.4 °F /  10.2 °C 30.10 in /  1019.2 hPa Calm     100 % 0.00 in /  0 mm 0.0 W/m2 CLR
00:50 50.2 °F /  10.1 °C 50.2 °F /  10.1 °C 30.10 in /  1019.2 hPa Calm     100 % 0.00 in /  0 mm 0.0 W/m2 CLR
00:55 50.4 °F /  10.2 °C 50.4 °F /  10.2 °C 30.10 in /  1019.2 hPa Calm     100 % 0.00 in /  0 mm 0.0 W/m2 CLR
01:00 50.4 °F /  10.2 °C 50.4 °F /  10.2 °C 30.10 in /  1019.2 hPa Calm     100 % 0.00 in /  0 mm 0.0 W/m2 RA
01:05 50.4 °F /  10.2 °C 50.4 °F /  10.2 °C 30.10 in /  1019.2 hPa Calm     100 % 0.00 in /  0 mm 0.0 W/m2 RA
01:10 50.5 °F /  10.3 °C 50.5 °F /  10.3 °C 30.10 in /  1019.2 hPa Calm     100 % 0.00 in /  0 mm 0.0 W/m2 CLR
01:15 50.5 °F /  10.3 °C 50.5 °F /  10.3 °C 30.10 in /  1019.2 hPa Calm     100 % 0.00 in /  0 mm 0.0 W/m2 CLR
01:20 50.4 °F /  10.2 °C 50.4 °F /  10.2 °C 30.10 in /  1019.2 hPa Calm     100 % 0.00 in /  0 mm 0.0 W/m2 CLR
01:25 50.4 °F /  10.2 °C 50.4 °F /  10.2 °C 30.10 in /  1019.2 hPa Calm     100 % 0.00 in /  0 mm 0.0 W/m2 CLR
01:30 50.4 °F /  10.2 °C 50.4 °F /  10.2 °C 30.10 in /  1019.2 hPa Calm     100 % 0.00 in /  0 mm 0.0 W/m2 CLR
01:40 50.4 °F /  10.2 °C 50.4 °F /  10.2 °C 30.09 in /  1018.8 hPa Calm     100 % 0.00 in /  0 mm 0.0 W/m2 CLR
01:45 50.0 °F /  10 °C 50.0 °F /  10 °C 30.09 in /  1018.8 hPa Calm     100 % 0.00 in /  0 mm 0.0 W/m2 CLR
01:50 49.8 °F /  9.9 °C 49.8 °F /  9.9 °C 30.08 in /  1018.5 hPa Calm     100 % 0.00 in /  0 mm 0.0 W/m2 CLR
01:55 49.8 °F /  9.9 °C 49.8 °F /  9.9 °C 30.09 in /  1018.8 hPa Calm     100 % 0.00 in /  0 mm 0.0 W/m2 CLR
02:00 49.8 °F /  9.9 °C 49.8 °F /  9.9 °C 30.09 in /  1018.8 hPa Calm     100 % 0.00 in /  0 mm 0.0 W/m2 CLR
02:05 49.6 °F /  9.8 °C 49.6 °F /  9.8 °C 30.08 in /  1018.5 hPa Calm     100 % 0.00 in /  0 mm 0.0 W/m2 CLR
02:10 49.6 °F /  9.8 °C 49.6 °F /  9.8 °C 30.08 in /  1018.5 hPa Calm     100 % 0.00 in /  0 mm 0.0 W/m2 CLR
02:15 49.5 °F /  9.7 °C 49.5 °F /  9.7 °C 30.08 in /  1018.5 hPa Calm     100 % 0.00 in /  0 mm 0.0 W/m2 CLR
02:20 49.3 °F /  9.6 °C 49.3 °F /  9.6 °C 30.08 in /  1018.5 hPa Calm     100 % 0.00 in /  0 mm 0.0 W/m2 CLR
02:25 48.9 °F /  9.4 °C 48.9 °F /  9.4 °C 30.08 in /  1018.5 hPa Calm     100 % 0.00 in /  0 mm 2.0 W/m2 CLR
02:30 48.7 °F /  9.3 °C 48.7 °F /  9.3 °C 30.08 in /  1018.5 hPa Calm     100 % 0.00 in /  0 mm 0.0 W/m2 CLR
02:35 48.6 °F /  9.2 °C 48.6 °F /  9.2 °C 30.07 in /  1018.2 hPa Calm     100 % 0.00 in /  0 mm 0.0 W/m2 CLR
02:40 48.2 °F /  9 °C 48.2 °F /  9 °C 30.07 in /  1018.2 hPa Calm     100 % 0.00 in /  0 mm 0.0 W/m2 CLR
02:50 48.2 °F /  9 °C 48.2 °F /  9 °C 30.07 in /  1018.2 hPa Calm     100 % 0.00 in /  0 mm 0.0 W/m2 CLR
02:55 48.6 °F /  9.2 °C 48.6 °F /  9.2 °C 30.07 in /  1018.2 hPa Calm     100 % 0.00 in /  0 mm 0.0 W/m2 CLR
03:00 48.2 °F /  9 °C 48.2 °F /  9 °C 30.07 in /  1018.2 hPa Calm     100 % 0.00 in /  0 mm 0.0 W/m2 CLR
03:05 48.0 °F /  8.9 °C 48.0 °F /  8.9 °C 30.07 in /  1018.2 hPa Calm     100 % 0.00 in /  0 mm 0.0 W/m2 CLR
03:10 47.8 °F /  8.8 °C 47.8 °F /  8.8 °C 30.07 in /  1018.2 hPa Calm     100 % 0.00 in /  0 mm 0.0 W/m2 CLR
03:15 47.7 °F /  8.7 °C 47.7 °F /  8.7 °C 30.07 in /  1018.2 hPa Calm     100 % 0.00 in /  0 mm 0.0 W/m2 CLR
03:20 47.7 °F /  8.7 °C 47.7 °F /  8.7 °C 30.07 in /  1018.2 hPa Calm     100 % 0.00 in /  0 mm 0.0 W/m2 CLR
03:25 47.8 °F /  8.8 °C 47.8 °F /  8.8 °C 30.07 in /  1018.2 hPa Calm     100 % 0.00 in /  0 mm 0.0 W/m2 CLR
03:30 47.8 °F /  8.8 °C 47.8 °F /  8.8 °C 30.07 in /  1018.2 hPa Calm     100 % 0.00 in /  0 mm 0.0 W/m2 CLR
03:35 48.0 °F /  8.9 °C 48.0 °F /  8.9 °C 30.06 in /  1017.8 hPa Calm     100 % 0.00 in /  0 mm 0.0 W/m2 CLR
03:40 48.0 °F /  8.9 °C 48.0 °F /  8.9 °C 30.07 in /  1018.2 hPa Calm     100 % 0.00 in /  0 mm 0.0 W/m2 CLR
03:45 48.2 °F /  9 °C 48.2 °F /  9 °C 30.06 in /  1017.8 hPa Calm     100 % 0.00 in /  0 mm 0.0 W/m2
03:50 48.4 °F /  9.1 °C 48.4 °F /  9.1 °C 30.06 in /  1017.8 hPa Calm     100 % 0.00 in /  0 mm 0.0 W/m2
03:55 48.6 °F /  9.2 °C 48.6 °F /  9.2 °C 30.06 in /  1017.8 hPa Calm     100 % 0.00 in /  0 mm 0.0 W/m2
04:00 48.6 °F /  9.2 °C 48.6 °F /  9.2 °C 30.06 in /  1017.8 hPa Calm     100 % 0.00 in /  0 mm 0.0 W/m2 CLR
04:05 48.4 °F /  9.1 °C 48.4 °F /  9.1 °C 30.06 in /  1017.8 hPa Calm     100 % 0.00 in /  0 mm 0.0 W/m2 CLR
04:10 48.4 °F /  9.1 °C 48.4 °F /  9.1 °C 30.05 in /  1017.5 hPa Calm     100 % 0.00 in /  0 mm 0.0 W/m2 CLR
04:15 48.6 °F /  9.2 °C 48.6 °F /  9.2 °C 30.05 in /  1017.5 hPa Calm     100 % 0.00 in /  0 mm 2.0 W/m2 CLR
04:20 48.7 °F /  9.3 °C 48.7 °F /  9.3 °C 30.05 in /  1017.5 hPa Calm     100 % 0.00 in /  0 mm 0.0 W/m2
04:25 48.9 °F /  9.4 °C 48.9 °F /  9.4 °C 30.05 in /  1017.5 hPa Calm     100 % 0.00 in /  0 mm 6.0 W/m2 CLR
04:30 48.6 °F /  9.2 °C 48.6 °F /  9.2 °C 30.05 in /  1017.5 hPa Calm     100 % 0.00 in /  0 mm 0.0 W/m2 CLR
04:35 48.6 °F /  9.2 °C 48.6 °F /  9.2 °C 30.05 in /  1017.5 hPa Calm     100 % 0.00 in /  0 mm 0.0 W/m2 CLR
04:40 48.6 °F /  9.2 °C 48.6 °F /  9.2 °C 30.05 in /  1017.5 hPa Calm     100 % 0.00 in /  0 mm 0.0 W/m2 CLR
04:45 48.2 °F /  9 °C 48.2 °F /  9 °C 30.06 in /  1017.8 hPa Calm     100 % 0.00 in /  0 mm 0.0 W/m2 CLR
04:50 48.0 °F /  8.9 °C 48.0 °F /  8.9 °C 30.05 in /  1017.5 hPa Calm     100 % 0.00 in /  0 mm 0.0 W/m2 CLR
04:55 48.2 °F /  9 °C 48.2 °F /  9 °C 30.05 in /  1017.5 hPa Calm     100 % 0.00 in /  0 mm 5.9 W/m2 CLR
05:00 48.0 °F /  8.9 °C 48.0 °F /  8.9 °C 30.05 in /  1017.5 hPa Calm     100 % 0.00 in /  0 mm 0.0 W/m2 CLR
05:05 48.2 °F /  9 °C 48.2 °F /  9 °C 30.05 in /  1017.5 hPa Calm     100 % 0.00 in /  0 mm 17.1 W/m2 CLR
05:10 48.6 °F /  9.2 °C 48.6 °F /  9.2 °C 30.05 in /  1017.5 hPa Calm     100 % 0.00 in /  0 mm 27.1 W/m2 CLR
05:15 48.9 °F /  9.4 °C 48.9 °F /  9.4 °C 30.05 in /  1017.5 hPa Calm     100 % 0.00 in /  0 mm 0.0 W/m2 CLR
05:20 49.1 °F /  9.5 °C 49.1 °F /  9.5 °C 30.05 in /  1017.5 hPa Calm     100 % 0.00 in /  0 mm 22.1 W/m2 BKN
05:25 49.6 °F /  9.8 °C 49.6 °F /  9.8 °C 30.05 in /  1017.5 hPa Calm     100 % 0.00 in /  0 mm 24.6 W/m2 BKN
05:30 50.0 °F /  10 °C 50.0 °F /  10 °C 30.05 in /  1017.5 hPa Calm     100 % 0.00 in /  0 mm 16.0 W/m2 BKN
05:35 50.2 °F /  10.1 °C 50.2 °F /  10.1 °C 30.05 in /  1017.5 hPa Calm     100 % 0.00 in /  0 mm 22.0 W/m2 BKN
05:40 50.2 °F /  10.1 °C 50.2 °F /  10.1 °C 30.05 in /  1017.5 hPa Calm     100 % 0.00 in /  0 mm 10.0 W/m2 CLR
05:45 50.2 °F /  10.1 °C 50.2 °F /  10.1 °C 30.05 in /  1017.5 hPa Calm     100 % 0.00 in /  0 mm 48.0 W/m2 CLR
05:50 50.2 °F /  10.1 °C 50.2 °F /  10.1 °C 30.05 in /  1017.5 hPa Calm     100 % 0.00 in /  0 mm 46.0 W/m2 CLR
05:55 50.2 °F /  10.1 °C 50.2 °F /  10.1 °C 30.05 in /  1017.5 hPa Calm     100 % 0.00 in /  0 mm 2.0 W/m2 BKN
06:00 50.2 °F /  10.1 °C 50.2 °F /  10.1 °C 30.05 in /  1017.5 hPa Calm     100 % 0.00 in /  0 mm 11.0 W/m2 BKN
06:05 50.4 °F /  10.2 °C 50.4 °F /  10.2 °C 30.05 in /  1017.5 hPa Calm     100 % 0.00 in /  0 mm 39.0 W/m2 BKN
06:10 50.7 °F /  10.4 °C 50.7 °F /  10.4 °C 30.05 in /  1017.5 hPa Calm     100 % 0.00 in /  0 mm 10.0 W/m2 BKN
06:15 51.1 °F /  10.6 °C 51.1 °F /  10.6 °C 30.05 in /  1017.5 hPa SSE 0.7 mph /  1.1 km/h   100 % 0.00 in /  0 mm 40.7 W/m2 BKN
06:20 51.3 °F /  10.7 °C 51.3 °F /  10.7 °C 30.05 in /  1017.5 hPa Calm     100 % 0.00 in /  0 mm 52.0 W/m2 BKN
06:25 51.4 °F /  10.8 °C 51.4 °F /  10.8 °C 30.04 in /  1017.2 hPa SSE 1.2 mph /  1.9 km/h   100 % 0.00 in /  0 mm 6.0 W/m2 OVC
06:30 51.6 °F /  10.9 °C 51.6 °F /  10.9 °C 30.04 in /  1017.2 hPa Calm     100 % 0.00 in /  0 mm 35.6 W/m2 OVC
06:35 51.8 °F /  11 °C 51.8 °F /  11 °C 30.03 in /  1016.8 hPa SE 2.3 mph /  3.7 km/h 2.3 mph /  3.7 km/h 100 % 0.00 in /  0 mm 39.0 W/m2 OVC
06:40 52.2 °F /  11.2 °C 52.2 °F /  11.2 °C 30.03 in /  1016.8 hPa SE 1.5 mph /  2.4 km/h 1.5 mph /  2.4 km/h 100 % 0.00 in /  0 mm 25.0 W/m2 OVC
06:45 52.2 °F /  11.2 °C 52.2 °F /  11.2 °C 30.03 in /  1016.8 hPa Calm     100 % 0.00 in /  0 mm 63.0 W/m2 OVC
06:50 52.3 °F /  11.3 °C 52.3 °F /  11.3 °C 30.03 in /  1016.8 hPa SE 1.2 mph /  1.9 km/h 1.2 mph /  1.9 km/h 100 % 0.00 in /  0 mm 40.3 W/m2 OVC
06:55 52.5 °F /  11.4 °C 52.5 °F /  11.4 °C 30.03 in /  1016.8 hPa East 3.9 mph /  6.3 km/h 3.9 mph /  6.3 km/h 100 % 0.00 in /  0 mm 67.0 W/m2 OVC
07:00 52.5 °F /  11.4 °C 52.5 °F /  11.4 °C 30.03 in /  1016.8 hPa South 3.5 mph /  5.6 km/h 3.5 mph /  5.6 km/h 100 % 0.00 in /  0 mm 11.0 W/m2 OVC
07:05 52.5 °F /  11.4 °C 52.5 °F /  11.4 °C 30.03 in /  1016.8 hPa SSE 1.7 mph /  2.7 km/h 1.7 mph /  2.7 km/h 100 % 0.00 in /  0 mm 27.1 W/m2 OVC
07:10 52.5 °F /  11.4 °C 52.5 °F /  11.4 °C 30.03 in /  1016.8 hPa Calm     100 % 0.00 in /  0 mm 0.0 W/m2 OVC
07:15 52.5 °F /  11.4 °C 52.5 °F /  11.4 °C 30.03 in /  1016.8 hPa Calm     100 % 0.00 in /  0 mm 72.0 W/m2 OVC
07:20 52.5 °F /  11.4 °C 52.5 °F /  11.4 °C 30.03 in /  1016.8 hPa SSE 1.2 mph /  1.9 km/h   100 % 0.00 in /  0 mm 29.6 W/m2 OVC
07:25 52.7 °F /  11.5 °C 52.7 °F /  11.5 °C 30.02 in /  1016.5 hPa SE 0.6 mph /  1 km/h   100 % 0.00 in /  0 mm 30.6 W/m2 OVC
07:30 52.7 °F /  11.5 °C 52.7 °F /  11.5 °C 30.02 in /  1016.5 hPa SE 2.3 mph /  3.7 km/h 2.3 mph /  3.7 km/h 100 % 0.00 in /  0 mm 18.0 W/m2 OVC
07:35 52.9 °F /  11.6 °C 52.9 °F /  11.6 °C 30.02 in /  1016.5 hPa SE 1.2 mph /  1.9 km/h 1.2 mph /  1.9 km/h 100 % 0.00 in /  0 mm 38.0 W/m2 OVC
07:41 53.1 °F /  11.7 °C 53.1 °F /  11.7 °C 30.02 in /  1016.5 hPa South 1.5 mph /  2.4 km/h 1.5 mph /  2.4 km/h 100 % 0.00 in /  0 mm 42.5 W/m2 OVC
07:46 53.2 °F /  11.8 °C 53.2 °F /  11.8 °C 30.02 in /  1016.5 hPa Calm     100 % 0.00 in /  0 mm 74.0 W/m2 OVC
07:51 53.4 °F /  11.9 °C 53.4 °F /  11.9 °C 30.02 in /  1016.5 hPa NE 1.1 mph /  1.8 km/h   100 % 0.00 in /  0 mm 61.6 W/m2 OVC
07:57 53.6 °F /  12 °C 53.6 °F /  12 °C 30.02 in /  1016.5 hPa SSE 1.2 mph /  1.9 km/h 1.2 mph /  1.9 km/h 100 % 0.00 in /  0 mm 63.9 W/m2 OVC
08:02 54.0 °F /  12.2 °C 54.0 °F /  12.2 °C 30.02 in /  1016.5 hPa SSW 1.2 mph /  1.9 km/h 1.2 mph /  1.9 km/h 100 % 0.00 in /  0 mm 101.0 W/m2 OVC
08:07 54.1 °F /  12.3 °C 54.1 °F /  12.3 °C 30.02 in /  1016.5 hPa Calm     100 % 0.00 in /  0 mm 78.4 W/m2 OVC
08:12 54.7 °F /  12.6 °C 54.7 °F /  12.6 °C 30.02 in /  1016.5 hPa SSE 1.2 mph /  1.9 km/h 1.2 mph /  1.9 km/h 100 % 0.00 in /  0 mm 93.5 W/m2 OVC
08:17 54.9 °F /  12.7 °C 54.9 °F /  12.7 °C 30.02 in /  1016.5 hPa Calm     100 % 0.00 in /  0 mm 94.0 W/m2 OVC
08:22 54.9 °F /  12.7 °C 54.9 °F /  12.7 °C 30.02 in /  1016.5 hPa South 2.2 mph /  3.5 km/h 2.2 mph /  3.5 km/h 100 % 0.00 in /  0 mm 101.0 W/m2 OVC
08:27 54.9 °F /  12.7 °C 54.9 °F /  12.7 °C 30.01 in /  1016.1 hPa SSE 2.3 mph /  3.7 km/h 2.3 mph /  3.7 km/h 100 % 0.00 in /  0 mm 51.7 W/m2 OVC
08:32 54.9 °F /  12.7 °C 54.9 °F /  12.7 °C 30.01 in /  1016.1 hPa SE 3.2 mph /  5.1 km/h 3.2 mph /  5.1 km/h 100 % 0.00 in /  0 mm 53.0 W/m2 OVC
08:37 54.7 °F /  12.6 °C 54.4 °F /  12.4 °C 30.00 in /  1015.8 hPa SE 2.5 mph /  4 km/h 2.5 mph /  4 km/h 99 % 0.00 in /  0 mm 74.0 W/m2 OVC
08:42 55.2 °F /  12.9 °C 55.2 °F /  12.9 °C 30.00 in /  1015.8 hPa SSE 1.2 mph /  1.9 km/h   100 % 0.00 in /  0 mm 88.0 W/m2 OVC
08:47 55.4 °F /  13 °C 55.1 °F /  12.8 °C 30.00 in /  1015.8 hPa Calm     99 % 0.00 in /  0 mm 75.2 W/m2 OVC
08:52 55.4 °F /  13 °C 55.1 °F /  12.8 °C 30.00 in /  1015.8 hPa Calm     99 % 0.00 in /  0 mm 97.0 W/m2 OVC
08:57 55.4 °F /  13 °C 55.1 °F /  12.8 °C 30.01 in /  1016.1 hPa SSE 1.2 mph /  1.9 km/h   99 % 0.00 in /  0 mm 97.0 W/m2 OVC
09:02 55.8 °F /  13.2 °C 55.5 °F /  13.1 °C 30.00 in /  1015.8 hPa SE 1.2 mph /  1.9 km/h   99 % 0.00 in /  0 mm 74.8 W/m2 OVC
09:07 55.9 °F /  13.3 °C 55.7 °F /  13.2 °C 30.00 in /  1015.8 hPa Calm     99 % 0.00 in /  0 mm 117.0 W/m2 OVC
09:12 56.5 °F /  13.6 °C 56.2 °F /  13.4 °C 30.00 in /  1015.8 hPa Calm     99 % 0.00 in /  0 mm 122.0 W/m2 OVC
09:17 56.5 °F /  13.6 °C 55.9 °F /  13.3 °C 30.00 in /  1015.8 hPa SSE 2.9 mph /  4.7 km/h 2.9 mph /  4.7 km/h 98 % 0.00 in /  0 mm 77.3 W/m2 OVC
09:22 56.5 °F /  13.6 °C 55.6 °F /  13.1 °C 30.00 in /  1015.8 hPa SE 1.2 mph /  1.9 km/h 1.2 mph /  1.9 km/h 97 % 0.00 in /  0 mm 83.0 W/m2 OVC
09:27 56.7 °F /  13.7 °C 55.8 °F /  13.2 °C 30.00 in /  1015.8 hPa SE 1.2 mph /  1.9 km/h   97 % 0.00 in /  0 mm 88.0 W/m2 OVC
09:32 56.5 °F /  13.6 °C 55.6 °F /  13.1 °C 30.00 in /  1015.8 hPa WSW 1.5 mph /  2.4 km/h 1.5 mph /  2.4 km/h 97 % 0.00 in /  0 mm 75.7 W/m2 OVC
09:37 56.7 °F /  13.7 °C 55.5 °F /  13.1 °C 30.00 in /  1015.8 hPa South 0.7 mph /  1.1 km/h   96 % 0.00 in /  0 mm 75.5 W/m2 OVC
09:42 56.7 °F /  13.7 °C 55.2 °F /  12.9 °C 30.00 in /  1015.8 hPa SSE 2.3 mph /  3.7 km/h 2.3 mph /  3.7 km/h 95 % 0.00 in /  0 mm 105.0 W/m2 OVC
09:47 56.7 °F /  13.7 °C 55.2 °F /  12.9 °C 29.99 in /  1015.5 hPa SSE 2.3 mph /  3.7 km/h 2.3 mph /  3.7 km/h 95 % 0.00 in /  0 mm 97.1 W/m2 OVC
09:52 57.0 °F /  13.9 °C 55.6 °F /  13.1 °C 29.99 in /  1015.5 hPa Calm     95 % 0.00 in /  0 mm 117.7 W/m2 OVC
09:57 57.4 °F /  14.1 °C 55.7 °F /  13.2 °C 29.99 in /  1015.5 hPa SSE 5.8 mph /  9.3 km/h 5.8 mph /  9.3 km/h 94 % 0.00 in /  0 mm 151.0 W/m2 OVC
10:02 57.6 °F /  14.2 °C 55.8 °F /  13.2 °C 29.99 in /  1015.5 hPa SW 5.8 mph /  9.3 km/h 5.8 mph /  9.3 km/h 94 % 0.00 in /  0 mm 103.0 W/m2 OVC
10:07 57.4 °F /  14.1 °C 55.4 °F /  13 °C 29.99 in /  1015.5 hPa SSE 3.9 mph /  6.3 km/h 3.9 mph /  6.3 km/h 93 % 0.00 in /  0 mm 104.1 W/m2 OVC
10:12 57.6 °F /  14.2 °C 55.6 °F /  13.1 °C 29.99 in /  1015.5 hPa SSE 3.5 mph /  5.6 km/h 3.5 mph /  5.6 km/h 93 % 0.00 in /  0 mm 163.0 W/m2 OVC
10:17 58.3 °F /  14.6 °C 56.0 °F /  13.3 °C 29.99 in /  1015.5 hPa Calm     92 % 0.00 in /  0 mm 155.7 W/m2 OVC
10:22 58.5 °F /  14.7 °C 55.8 °F /  13.2 °C 29.99 in /  1015.5 hPa ENE 2.5 mph /  4 km/h 2.5 mph /  4 km/h 91 % 0.00 in /  0 mm 193.9 W/m2 BKN
10:27 59.0 °F /  15 °C 56.4 °F /  13.6 °C 29.99 in /  1015.5 hPa South 4.4 mph /  7.1 km/h 4.4 mph /  7.1 km/h 91 % 0.00 in /  0 mm 174.1 W/m2 OVC
10:32 59.4 °F /  15.2 °C 56.4 °F /  13.6 °C 29.98 in /  1015.1 hPa South 4.6 mph /  7.4 km/h 4.6 mph /  7.4 km/h 90 % 0.00 in /  0 mm 279.0 W/m2 BKN
10:37 59.9 °F /  15.5 °C 56.6 °F /  13.7 °C 29.98 in /  1015.1 hPa SSW 1.2 mph /  1.9 km/h   89 % 0.00 in /  0 mm 248.0 W/m2 BKN
10:42 60.6 °F /  15.9 °C 57.0 °F /  13.9 °C 29.98 in /  1015.1 hPa South 2.9 mph /  4.7 km/h 2.9 mph /  4.7 km/h 88 % 0.00 in /  0 mm 393.1 W/m2 BKN
10:47 61.7 °F /  16.5 °C 57.8 °F /  14.3 °C 29.98 in /  1015.1 hPa SSE 6.5 mph /  10.5 km/h 6.5 mph /  10.5 km/h 87 % 0.00 in /  0 mm 303.0 W/m2 BKN
10:52 61.2 °F /  16.2 °C 56.6 °F /  13.7 °C 29.97 in /  1014.8 hPa SSW 6.9 mph /  11.1 km/h 6.9 mph /  11.1 km/h 85 % 0.00 in /  0 mm 224.5 W/m2 BKN
10:57 61.7 °F /  16.5 °C 57.1 °F /  13.9 °C 29.97 in /  1014.8 hPa East 5.8 mph /  9.3 km/h 5.8 mph /  9.3 km/h 85 % 0.00 in /  0 mm 223.7 W/m2 BKN
11:02 61.3 °F /  16.3 °C 56.5 °F /  13.6 °C 29.97 in /  1014.8 hPa SW 3.6 mph /  5.8 km/h 3.6 mph /  5.8 km/h 84 % 0.00 in /  0 mm 246.0 W/m2 OVC
11:07 61.3 °F /  16.3 °C 56.5 °F /  13.6 °C 29.97 in /  1014.8 hPa ENE 3.7 mph /  6 km/h 3.7 mph /  6 km/h 84 % 0.00 in /  0 mm 159.4 W/m2 OVC
11:12 61.7 °F /  16.5 °C 56.8 °F /  13.8 °C 29.97 in /  1014.8 hPa SSE 3.5 mph /  5.6 km/h 3.5 mph /  5.6 km/h 84 % 0.00 in /  0 mm 161.9 W/m2 OVC
11:17 61.7 °F /  16.5 °C 56.5 °F /  13.6 °C 29.96 in /  1014.4 hPa SSE 7.2 mph /  11.6 km/h 7.2 mph /  11.6 km/h 83 % 0.00 in /  0 mm 243.0 W/m2 OVC
11:22 61.7 °F /  16.5 °C 56.1 °F /  13.4 °C 29.96 in /  1014.4 hPa SSE 5.8 mph /  9.3 km/h 5.8 mph /  9.3 km/h 82 % 0.00 in /  0 mm 262.0 W/m2 BKN
11:27 62.1 °F /  16.7 °C 56.2 °F /  13.4 °C 29.95 in /  1014.1 hPa SSE 3.5 mph /  5.6 km/h 3.5 mph /  5.6 km/h 81 % 0.00 in /  0 mm 464.0 W/m2 BKN
11:32 63.3 °F /  17.4 °C 57.4 °F /  14.1 °C 29.95 in /  1014.1 hPa SSE 6.5 mph /  10.5 km/h 6.5 mph /  10.5 km/h 81 % 0.00 in /  0 mm 392.0 W/m2 BKN
11:37 63.0 °F /  17.2 °C 56.3 °F /  13.5 °C 29.95 in /  1014.1 hPa SE 1.2 mph /  1.9 km/h 1.2 mph /  1.9 km/h 79 % 0.00 in /  0 mm 676.0 W/m2 BKN
11:42 63.9 °F /  17.7 °C 56.9 °F /  13.8 °C 29.95 in /  1014.1 hPa WNW 4.6 mph /  7.4 km/h 4.6 mph /  7.4 km/h 78 % 0.00 in /  0 mm 230.0 W/m2 BKN
11:47 63.5 °F /  17.5 °C 56.9 °F /  13.8 °C 29.95 in /  1014.1 hPa WSW 4.4 mph /  7.1 km/h 4.4 mph /  7.1 km/h 79 % 0.00 in /  0 mm 250.0 W/m2 OVC
11:52 63.5 °F /  17.5 °C 56.5 °F /  13.6 °C 29.94 in /  1013.8 hPa South 9.0 mph /  14.5 km/h 9.0 mph /  14.5 km/h 78 % 0.00 in /  0 mm 280.0 W/m2 OVC
11:57 63.1 °F /  17.3 °C 55.4 °F /  13 °C 29.94 in /  1013.8 hPa SE 11.5 mph /  18.5 km/h 11.5 mph /  18.5 km/h 76 % 0.00 in /  0 mm 374.0 W/m2 BKN
12:02 64.0 °F /  17.8 °C 56.0 °F /  13.3 °C 29.94 in /  1013.8 hPa South 10.4 mph /  16.7 km/h 10.4 mph /  16.7 km/h 75 % 0.00 in /  0 mm 309.0 W/m2 BKN
12:07 64.2 °F /  17.9 °C 55.8 °F /  13.2 °C 29.93 in /  1013.4 hPa SE 6.2 mph /  10 km/h 6.2 mph /  10 km/h 74 % 0.00 in /  0 mm 333.0 W/m2 BKN
12:12 64.2 °F /  17.9 °C 55.4 °F /  13 °C 29.93 in /  1013.4 hPa West 9.2 mph /  14.8 km/h 9.2 mph /  14.8 km/h 73 % 0.00 in /  0 mm 354.0 W/m2 BKN
12:17 64.0 °F /  17.8 °C 54.8 °F /  12.7 °C 29.93 in /  1013.4 hPa SE 6.9 mph /  11.1 km/h 6.9 mph /  11.1 km/h 72 % 0.00 in /  0 mm 199.9 W/m2 OVC
12:22 63.5 °F /  17.5 °C 53.9 °F /  12.2 °C 29.93 in /  1013.4 hPa South 8.7 mph /  14 km/h 8.7 mph /  14 km/h 71 % 0.00 in /  0 mm 241.0 W/m2 OVC
12:27 63.1 °F /  17.3 °C 53.2 °F /  11.8 °C 29.93 in /  1013.4 hPa South 9.2 mph /  14.8 km/h 9.2 mph /  14.8 km/h 70 % 0.00 in /  0 mm 219.0 W/m2 OVC
12:32 63.0 °F /  17.2 °C 53.4 °F /  11.9 °C 29.93 in /  1013.4 hPa SE 4.6 mph /  7.4 km/h 4.6 mph /  7.4 km/h 71 % 0.00 in /  0 mm 157.8 W/m2 OVC
12:37 62.6 °F /  17 °C 53.1 °F /  11.7 °C 29.92 in /  1013.1 hPa South 6.9 mph /  11.1 km/h 6.9 mph /  11.1 km/h 71 % 0.00 in /  0 mm 155.0 W/m2 OVC
12:42 62.1 °F /  16.7 °C 52.9 °F /  11.6 °C 29.92 in /  1013.1 hPa SE 3.5 mph /  5.6 km/h 3.5 mph /  5.6 km/h 72 % 0.00 in /  0 mm 146.0 W/m2 OVC
12:47 62.1 °F /  16.7 °C 52.9 °F /  11.6 °C 29.92 in /  1013.1 hPa WSW 10.9 mph /  17.5 km/h 10.9 mph /  17.5 km/h 72 % 0.00 in /  0 mm 138.4 W/m2 OVC
12:52 62.2 °F /  16.8 °C 53.1 °F /  11.7 °C 29.91 in /  1012.8 hPa SE 11.5 mph /  18.5 km/h 11.5 mph /  18.5 km/h 72 % 0.00 in /  0 mm 167.4 W/m2 OVC
12:57 62.6 °F /  17 °C 53.4 °F /  11.9 °C 29.91 in /  1012.8 hPa SW 5.9 mph /  9.5 km/h 5.9 mph /  9.5 km/h 72 % 0.00 in /  0 mm 215.0 W/m2 OVC
13:02 62.6 °F /  17 °C 52.7 °F /  11.5 °C 29.91 in /  1012.8 hPa SSE 3.5 mph /  5.6 km/h 3.5 mph /  5.6 km/h 70 % 0.00 in /  0 mm 177.8 W/m2 OVC
13:07 62.6 °F /  17 °C 51.9 °F /  11.1 °C 29.91 in /  1012.8 hPa South 6.2 mph /  10 km/h 6.2 mph /  10 km/h 68 % 0.00 in /  0 mm 170.4 W/m2 OVC
13:12 62.4 °F /  16.9 °C 51.7 °F /  10.9 °C 29.91 in /  1012.8 hPa ESE 4.6 mph /  7.4 km/h 4.6 mph /  7.4 km/h 68 % 0.00 in /  0 mm 198.0 W/m2 OVC
13:17 62.6 °F /  17 °C 52.7 °F /  11.5 °C 29.91 in /  1012.8 hPa SE 1.2 mph /  1.9 km/h 1.2 mph /  1.9 km/h 70 % 0.00 in /  0 mm 150.7 W/m2 OVC
13:22 62.1 °F /  16.7 °C 51.8 °F /  11 °C 29.91 in /  1012.8 hPa SSE 6.9 mph /  11.1 km/h 6.9 mph /  11.1 km/h 69 % 0.00 in /  0 mm 115.0 W/m2 OVC
13:27 61.7 °F /  16.5 °C 51.4 °F /  10.8 °C 29.91 in /  1012.8 hPa South 7.7 mph /  12.4 km/h 7.7 mph /  12.4 km/h 69 % 0.00 in /  0 mm 129.0 W/m2 OVC
13:32 61.5 °F /  16.4 °C 51.3 °F /  10.7 °C 29.90 in /  1012.4 hPa SW 4.8 mph /  7.7 km/h 4.8 mph /  7.7 km/h 69 % 0.00 in /  0 mm 97.7 W/m2 OVC
13:37 61.5 °F /  16.4 °C 51.6 °F /  10.9 °C 29.90 in /  1012.4 hPa WSW 2.3 mph /  3.7 km/h   70 % 0.00 in /  0 mm 100.0 W/m2 OVC
13:42 61.3 °F /  16.3 °C 51.9 °F /  11.1 °C 29.90 in /  1012.4 hPa South 5.8 mph /  9.3 km/h 5.8 mph /  9.3 km/h 71 % 0.00 in /  0 mm 85.3 W/m2 OVC
13:47 61.2 °F /  16.2 °C 52.4 °F /  11.3 °C 29.90 in /  1012.4 hPa WSW 6.9 mph /  11.1 km/h 6.9 mph /  11.1 km/h 73 % 0.00 in /  0 mm 89.0 W/m2 OVC
13:52 60.8 °F /  16 °C 52.1 °F /  11.2 °C 29.90 in /  1012.4 hPa Calm     73 % 0.00 in /  0 mm 57.1 W/m2 OVC
13:57 60.4 °F /  15.8 °C 52.5 °F /  11.4 °C 29.90 in /  1012.4 hPa ESE 5.4 mph /  8.7 km/h 5.4 mph /  8.7 km/h 75 % 0.00 in /  0 mm 51.0 W/m2 OVC
14:02 59.7 °F /  15.4 °C 52.8 °F /  11.6 °C 29.90 in /  1012.4 hPa North 2.3 mph /  3.7 km/h 2.3 mph /  3.7 km/h 78 % 0.00 in /  0 mm 92.0 W/m2 OVC
14:07 59.0 °F /  15 °C 53.2 °F /  11.8 °C 29.89 in /  1012.1 hPa SSW 4.6 mph /  7.4 km/h 4.6 mph /  7.4 km/h 81 % 0.00 in /  0 mm 84.5 W/m2 OVC
14:12 58.8 °F /  14.9 °C 53.7 °F /  12.1 °C 29.89 in /  1012.1 hPa SSW 4.6 mph /  7.4 km/h 4.6 mph /  7.4 km/h 83 % 0.01 in /  0.25 mm 113.1 W/m2 RA
14:17 58.5 °F /  14.7 °C 53.3 °F /  11.8 °C 29.89 in /  1012.1 hPa SE 1.2 mph /  1.9 km/h   83 % 0.01 in /  0.25 mm 130.0 W/m2 RA
14:22 58.1 °F /  14.5 °C 53.6 °F /  12 °C 29.89 in /  1012.1 hPa SE 1.2 mph /  1.9 km/h 1.2 mph /  1.9 km/h 85 % 0.01 in /  0.25 mm 115.0 W/m2 OVC
14:27 58.5 °F /  14.7 °C 54.0 °F /  12.2 °C 29.88 in /  1011.7 hPa South 8.1 mph /  13 km/h 8.1 mph /  13 km/h 85 % 0.01 in /  0.25 mm 116.4 W/m2 OVC
14:32 58.5 °F /  14.7 °C 54.3 °F /  12.4 °C 29.88 in /  1011.7 hPa ESE 4.1 mph /  6.6 km/h 4.1 mph /  6.6 km/h 86 % 0.01 in /  0.25 mm 134.0 W/m2 OVC
14:37 58.3 °F /  14.6 °C 54.4 °F /  12.4 °C 29.88 in /  1011.7 hPa South 1.8 mph /  2.9 km/h 1.8 mph /  2.9 km/h 87 % 0.01 in /  0.25 mm 122.0 W/m2 OVC
14:42 58.1 °F /  14.5 °C 54.2 °F /  12.3 °C 29.88 in /  1011.7 hPa ESE 0.8 mph /  1.3 km/h 0.8 mph /  1.3 km/h 87 % 0.01 in /  0.25 mm 79.3 W/m2 OVC
14:47 58.3 °F /  14.6 °C 55.1 °F /  12.8 °C 29.87 in /  1011.4 hPa Calm     89 % 0.01 in /  0.25 mm 114.0 W/m2 OVC
14:52 58.3 °F /  14.6 °C 55.1 °F /  12.8 °C 29.87 in /  1011.4 hPa South 3.5 mph /  5.6 km/h 3.5 mph /  5.6 km/h 89 % 0.01 in /  0.25 mm 123.0 W/m2 OVC
14:57 58.5 °F /  14.7 °C 54.9 °F /  12.7 °C 29.86 in /  1011.1 hPa SSE 7.5 mph /  12.1 km/h 7.5 mph /  12.1 km/h 88 % 0.01 in /  0.25 mm 107.4 W/m2 OVC
15:02 58.5 °F /  14.7 °C 54.9 °F /  12.7 °C 29.87 in /  1011.4 hPa West 3.7 mph /  6 km/h 3.7 mph /  6 km/h 88 % 0.01 in /  0.25 mm 149.0 W/m2 OVC
15:07 57.9 °F /  14.4 °C 53.8 °F /  12.1 °C 29.86 in /  1011.1 hPa South 5.9 mph /  9.5 km/h 5.9 mph /  9.5 km/h 86 % 0.01 in /  0.25 mm 117.0 W/m2 OVC
15:12 57.6 °F /  14.2 °C 53.7 °F /  12.1 °C 29.86 in /  1011.1 hPa ESE 1.5 mph /  2.4 km/h 1.5 mph /  2.4 km/h 87 % 0.00 in /  0 mm 93.5 W/m2 OVC
15:17 57.0 °F /  13.9 °C 53.5 °F /  11.9 °C 29.86 in /  1011.1 hPa SSE 5.8 mph /  9.3 km/h 5.8 mph /  9.3 km/h 88 % 0.00 in /  0 mm 109.0 W/m2 OVC
15:22 57.0 °F /  13.9 °C 53.2 °F /  11.8 °C 29.86 in /  1011.1 hPa SE 7.5 mph /  12.1 km/h 7.5 mph /  12.1 km/h 87 % 0.00 in /  0 mm 131.0 W/m2 OVC
15:27 56.8 °F /  13.8 °C 53.0 °F /  11.7 °C 29.86 in /  1011.1 hPa SSE 4.6 mph /  7.4 km/h 4.6 mph /  7.4 km/h 87 % 0.01 in /  0.25 mm 112.0 W/m2 RA
15:32 56.3 °F /  13.5 °C 53.1 °F /  11.7 °C 29.86 in /  1011.1 hPa SSE 3.5 mph /  5.6 km/h 3.5 mph /  5.6 km/h 89 % 0.01 in /  0.25 mm 77.2 W/m2 RA
15:37 56.1 °F /  13.4 °C 53.2 °F /  11.8 °C 29.86 in /  1011.1 hPa SSE 6.2 mph /  10 km/h 6.2 mph /  10 km/h 90 % 0.01 in /  0.25 mm 89.0 W/m2 OVC
15:42 55.8 °F /  13.2 °C 53.2 °F /  11.8 °C 29.86 in /  1011.1 hPa East 4.8 mph /  7.7 km/h 4.8 mph /  7.7 km/h 91 % 0.02 in /  0.51 mm 91.0 W/m2 RA
15:47 55.4 °F /  13 °C 53.1 °F /  11.7 °C 29.86 in /  1011.1 hPa Calm     92 % 0.02 in /  0.51 mm 76.7 W/m2 RA
15:52 55.2 °F /  12.9 °C 53.2 °F /  11.8 °C 29.86 in /  1011.1 hPa NW 1.2 mph /  1.9 km/h 1.2 mph /  1.9 km/h 93 % 0.02 in /  0.51 mm 71.5 W/m2 OVC
15:57 55.2 °F /  12.9 °C 53.5 °F /  11.9 °C 29.86 in /  1011.1 hPa WNW 0.7 mph /  1.1 km/h   94 % 0.02 in /  0.51 mm 88.0 W/m2 OVC
16:02 55.0 °F /  12.8 °C 53.6 °F /  12 °C 29.86 in /  1011.1 hPa Calm     95 % 0.02 in /  0.51 mm 88.4 W/m2 RA
16:07 55.2 °F /  12.9 °C 53.8 °F /  12.1 °C 29.85 in /  1010.7 hPa West 1.2 mph /  1.9 km/h 1.2 mph /  1.9 km/h 95 % 0.02 in /  0.51 mm 88.5 W/m2 RA
16:12 55.0 °F /  12.8 °C 53.9 °F /  12.2 °C 29.85 in /  1010.7 hPa Calm     96 % 0.02 in /  0.51 mm 71.0 W/m2 OVC
16:17 54.9 °F /  12.7 °C 54.0 °F /  12.2 °C 29.85 in /  1010.7 hPa Calm     97 % 0.02 in /  0.51 mm 46.7 W/m2 OVC
16:22 54.7 °F /  12.6 °C 53.8 °F /  12.1 °C 29.84 in /  1010.4 hPa WNW 2.3 mph /  3.7 km/h 2.3 mph /  3.7 km/h 97 % 0.02 in /  0.51 mm 50.2 W/m2 OVC
16:27 54.5 °F /  12.5 °C 53.7 °F /  12.1 °C 29.84 in /  1010.4 hPa Calm     97 % 0.02 in /  0.51 mm 64.0 W/m2 OVC
16:32 54.9 °F /  12.7 °C 54.3 °F /  12.4 °C 29.83 in /  1010 hPa Calm     98 % 0.02 in /  0.51 mm 57.6 W/m2 OVC
16:37 54.7 °F /  12.6 °C 54.1 °F /  12.3 °C 29.83 in /  1010 hPa Calm     98 % 0.02 in /  0.51 mm 38.0 W/m2 OVC
16:42 54.9 °F /  12.7 °C 54.6 °F /  12.6 °C 29.83 in /  1010 hPa Calm     99 % 0.01 in /  0.25 mm 52.4 W/m2 OVC
16:47 54.5 °F /  12.5 °C 54.2 °F /  12.3 °C 29.83 in /  1010 hPa Calm     99 % 0.02 in /  0.51 mm 73.0 W/m2 RA
16:52 54.5 °F /  12.5 °C 54.5 °F /  12.5 °C 29.83 in /  1010 hPa Calm     100 % 0.02 in /  0.51 mm 36.3 W/m2 RA
17:02 54.1 °F /  12.3 °C 54.1 °F /  12.3 °C 29.83 in /  1010 hPa ESE 1.2 mph /  1.9 km/h   100 % 0.02 in /  0.51 mm 38.0 W/m2 OVC
17:07 54.0 °F /  12.2 °C 54.0 °F /  12.2 °C 29.82 in /  1009.7 hPa Calm     100 % 0.01 in /  0.25 mm 57.8 W/m2 OVC
17:12 54.0 °F /  12.2 °C 54.0 °F /  12.2 °C 29.82 in /  1009.7 hPa Calm     100 % 0.01 in /  0.25 mm 72.4 W/m2 OVC
17:17 54.1 °F /  12.3 °C 54.1 °F /  12.3 °C 29.81 in /  1009.4 hPa Calm     100 % 0.02 in /  0.51 mm 75.0 W/m2 RA
17:22 54.1 °F /  12.3 °C 54.1 °F /  12.3 °C 29.81 in /  1009.4 hPa Calm     100 % 0.02 in /  0.51 mm 67.3 W/m2 RA
17:27 54.3 °F /  12.4 °C 54.3 °F /  12.4 °C 29.80 in /  1009 hPa Calm     100 % 0.02 in /  0.51 mm 60.2 W/m2 OVC
17:33 54.0 °F /  12.2 °C 54.0 °F /  12.2 °C 29.81 in /  1009.4 hPa Calm     100 % 0.02 in /  0.51 mm 66.0 W/m2 OVC
17:38 54.0 °F /  12.2 °C 54.0 °F /  12.2 °C 29.80 in /  1009 hPa Calm     100 % 0.02 in /  0.51 mm 57.0 W/m2 OVC
17:43 53.8 °F /  12.1 °C 53.8 °F /  12.1 °C 29.80 in /  1009 hPa Calm     100 % 0.01 in /  0.25 mm 30.4 W/m2 OVC
17:48 53.6 °F /  12 °C 53.6 °F /  12 °C 29.80 in /  1009 hPa Calm     100 % 0.01 in /  0.25 mm 31.0 W/m2 OVC
17:53 53.6 °F /  12 °C 53.6 °F /  12 °C 29.79 in /  1008.7 hPa Calm     100 % 0.01 in /  0.25 mm 2.0 W/m2 OVC
17:58 53.4 °F /  11.9 °C 53.4 °F /  11.9 °C 29.80 in /  1009 hPa Calm     100 % 0.01 in /  0.25 mm 22.7 W/m2 OVC
18:03 53.4 °F /  11.9 °C 53.4 °F /  11.9 °C 29.79 in /  1008.7 hPa Calm     100 % 0.01 in /  0.25 mm 64.0 W/m2 OVC
18:08 53.6 °F /  12 °C 53.6 °F /  12 °C 29.78 in /  1008.4 hPa Calm     100 % 0.01 in /  0.25 mm 7.0 W/m2 OVC
18:13 53.6 °F /  12 °C 53.6 °F /  12 °C 29.78 in /  1008.4 hPa Calm     100 % 0.02 in /  0.51 mm 24.6 W/m2 RA
18:18 53.6 °F /  12 °C 53.6 °F /  12 °C 29.78 in /  1008.4 hPa Calm     100 % 0.01 in /  0.25 mm 39.0 W/m2 RA
18:23 53.6 °F /  12 °C 53.6 °F /  12 °C 29.78 in /  1008.4 hPa Calm     100 % 0.01 in /  0.25 mm 10.0 W/m2 OVC
18:28 53.6 °F /  12 °C 53.6 °F /  12 °C 29.78 in /  1008.4 hPa Calm     100 % 0.01 in /  0.25 mm 15.0 W/m2 OVC
18:33 53.6 °F /  12 °C 53.6 °F /  12 °C 29.78 in /  1008.4 hPa Calm     100 % 0.02 in /  0.51 mm 30.5 W/m2 RA
18:38 53.8 °F /  12.1 °C 53.8 °F /  12.1 °C 29.78 in /  1008.4 hPa Calm     100 % 0.02 in /  0.51 mm 38.0 W/m2 OVC
18:43 54.0 °F /  12.2 °C 54.0 °F /  12.2 °C 29.78 in /  1008.4 hPa Calm     100 % 0.02 in /  0.51 mm 0.0 W/m2 RA
18:48 53.8 °F /  12.1 °C 53.8 °F /  12.1 °C 29.78 in /  1008.4 hPa Calm     100 % 0.02 in /  0.51 mm 19.4 W/m2 RA
18:53 53.6 °F /  12 °C 53.6 °F /  12 °C 29.77 in /  1008 hPa Calm     100 % 0.02 in /  0.51 mm 0.0 W/m2 OVC
18:58 53.4 °F /  11.9 °C 53.4 °F /  11.9 °C 29.77 in /  1008 hPa Calm     100 % 0.02 in /  0.51 mm 14.0 W/m2 OVC
19:03 53.6 °F /  12 °C 53.6 °F /  12 °C 29.77 in /  1008 hPa Calm     100 % 0.02 in /  0.51 mm 42.7 W/m2 OVC
19:08 53.8 °F /  12.1 °C 53.8 °F /  12.1 °C 29.77 in /  1008 hPa Calm     100 % 0.02 in /  0.51 mm 35.7 W/m2 OVC
19:13 53.6 °F /  12 °C 53.6 °F /  12 °C 29.77 in /  1008 hPa Calm     100 % 0.02 in /  0.51 mm 72.0 W/m2 OVC
19:18 53.6 °F /  12 °C 53.6 °F /  12 °C 29.77 in /  1008 hPa Calm     100 % 0.02 in /  0.51 mm 27.1 W/m2 RA
19:23 53.8 °F /  12.1 °C 53.8 °F /  12.1 °C 29.77 in /  1008 hPa Calm     100 % 0.03 in /  0.76 mm 33.1 W/m2 RA
19:28 53.8 °F /  12.1 °C 53.8 °F /  12.1 °C 29.77 in /  1008 hPa Calm     100 % 0.02 in /  0.51 mm 85.0 W/m2 RA
19:33 53.8 °F /  12.1 °C 53.8 °F /  12.1 °C 29.77 in /  1008 hPa Calm     100 % 0.03 in /  0.76 mm 30.5 W/m2 RA
19:38 53.8 °F /  12.1 °C 53.8 °F /  12.1 °C 29.77 in /  1008 hPa Calm     100 % 0.04 in /  1.02 mm 22.0 W/m2 RA
19:43 53.8 °F /  12.1 °C 53.8 °F /  12.1 °C 29.76 in /  1007.7 hPa Calm     100 % 0.04 in /  1.02 mm 18.5 W/m2 RA
19:48 53.6 °F /  12 °C 53.6 °F /  12 °C 29.76 in /  1007.7 hPa SSE 2.5 mph /  4 km/h 2.5 mph /  4 km/h 100 % 0.05 in /  1.27 mm 0.0 W/m2 RA
19:53 53.4 °F /  11.9 °C 53.4 °F /  11.9 °C 29.76 in /  1007.7 hPa SSE 3.5 mph /  5.6 km/h 3.5 mph /  5.6 km/h 100 % 0.05 in /  1.27 mm 13.4 W/m2 RA
20:03 53.1 °F /  11.7 °C 53.1 °F /  11.7 °C 29.76 in /  1007.7 hPa Calm     100 % 0.06 in /  1.52 mm 11.0 W/m2 RA
20:13 52.7 °F /  11.5 °C 52.7 °F /  11.5 °C 29.76 in /  1007.7 hPa Calm     100 % 0.06 in /  1.52 mm 6.0 W/m2 RA
20:18 52.7 °F /  11.5 °C 52.7 °F /  11.5 °C 29.76 in /  1007.7 hPa Calm     100 % 0.06 in /  1.52 mm 0.0 W/m2
20:23 52.7 °F /  11.5 °C 52.7 °F /  11.5 °C 29.76 in /  1007.7 hPa Calm     100 % 0.05 in /  1.27 mm 3.5 W/m2
20:28 52.5 °F /  11.4 °C 52.5 °F /  11.4 °C 29.76 in /  1007.7 hPa Calm     100 % 0.05 in /  1.27 mm 8.5 W/m2
20:33 52.7 °F /  11.5 °C 52.7 °F /  11.5 °C 29.76 in /  1007.7 hPa Calm     100 % 0.04 in /  1.02 mm 0.0 W/m2
20:38 52.7 °F /  11.5 °C 52.7 °F /  11.5 °C 29.76 in /  1007.7 hPa Calm     100 % 0.03 in /  0.76 mm 18.0 W/m2
20:43 52.7 °F /  11.5 °C 52.7 °F /  11.5 °C 29.76 in /  1007.7 hPa Calm     100 % 0.02 in /  0.51 mm 2.5 W/m2
20:48 52.5 °F /  11.4 °C 52.5 °F /  11.4 °C 29.76 in /  1007.7 hPa Calm     100 % 0.02 in /  0.51 mm 0.0 W/m2
20:53 52.5 °F /  11.4 °C 52.5 °F /  11.4 °C 29.76 in /  1007.7 hPa Calm     100 % 0.02 in /  0.51 mm 0.0 W/m2
20:58 52.5 °F /  11.4 °C 52.5 °F /  11.4 °C 29.76 in /  1007.7 hPa Calm     100 % 0.02 in /  0.51 mm 2.5 W/m2 RA
21:03 52.5 °F /  11.4 °C 52.5 °F /  11.4 °C 29.76 in /  1007.7 hPa Calm     100 % 0.02 in /  0.51 mm 0.0 W/m2 RA
21:08 52.7 °F /  11.5 °C 52.7 °F /  11.5 °C 29.76 in /  1007.7 hPa Calm     100 % 0.02 in /  0.51 mm 0.0 W/m2 RA
21:14 52.5 °F /  11.4 °C 52.5 °F /  11.4 °C 29.76 in /  1007.7 hPa Calm     100 % 0.02 in /  0.51 mm 8.0 W/m2 RA
21:19 52.7 °F /  11.5 °C 52.7 °F /  11.5 °C 29.77 in /  1008 hPa Calm     100 % 0.02 in /  0.51 mm 0.0 W/m2
21:24 52.5 °F /  11.4 °C 52.5 °F /  11.4 °C 29.77 in /  1008 hPa Calm     100 % 0.02 in /  0.51 mm 0.0 W/m2
21:29 52.5 °F /  11.4 °C 52.5 °F /  11.4 °C 29.76 in /  1007.7 hPa Calm     100 % 0.02 in /  0.51 mm 0.0 W/m2
21:34 52.5 °F /  11.4 °C 52.5 °F /  11.4 °C 29.76 in /  1007.7 hPa Calm     100 % 0.02 in /  0.51 mm 2.0 W/m2
21:39 52.2 °F /  11.2 °C 52.2 °F /  11.2 °C 29.76 in /  1007.7 hPa Calm     100 % 0.02 in /  0.51 mm 0.0 W/m2 RA
21:44 52.2 °F /  11.2 °C 52.2 °F /  11.2 °C 29.76 in /  1007.7 hPa Calm     100 % 0.02 in /  0.51 mm 0.0 W/m2 RA
21:49 52.0 °F /  11.1 °C 52.0 °F /  11.1 °C 29.76 in /  1007.7 hPa Calm     100 % 0.02 in /  0.51 mm 0.0 W/m2
21:59 52.0 °F /  11.1 °C 52.0 °F /  11.1 °C 29.76 in /  1007.7 hPa Calm     100 % 0.02 in /  0.51 mm 0.0 W/m2 OVC
22:04 51.8 °F /  11 °C 51.8 °F /  11 °C 29.76 in /  1007.7 hPa Calm     100 % 0.02 in /  0.51 mm 0.0 W/m2 OVC
22:09 51.8 °F /  11 °C 51.8 °F /  11 °C 29.76 in /  1007.7 hPa Calm     100 % 0.01 in /  0.25 mm 0.0 W/m2 OVC
22:14 51.8 °F /  11 °C 51.8 °F /  11 °C 29.76 in /  1007.7 hPa Calm     100 % 0.01 in /  0.25 mm 0.0 W/m2 OVC
22:19 51.8 °F /  11 °C 51.8 °F /  11 °C 29.76 in /  1007.7 hPa Calm     100 % 0.01 in /  0.25 mm 0.0 W/m2 OVC
22:24 51.8 °F /  11 °C 51.8 °F /  11 °C 29.77 in /  1008 hPa Calm     100 % 0.01 in /  0.25 mm 0.0 W/m2 OVC
22:29 51.8 °F /  11 °C 51.8 °F /  11 °C 29.77 in /  1008 hPa Calm     100 % 0.01 in /  0.25 mm 0.0 W/m2 OVC
22:34 51.8 °F /  11 °C 51.8 °F /  11 °C 29.77 in /  1008 hPa Calm     100 % 0.01 in /  0.25 mm 0.0 W/m2 OVC
22:39 51.8 °F /  11 °C 51.8 °F /  11 °C 29.77 in /  1008 hPa Calm     100 % 0.00 in /  0 mm 0.0 W/m2 OVC
22:44 51.8 °F /  11 °C 51.8 °F /  11 °C 29.77 in /  1008 hPa Calm     100 % 0.00 in /  0 mm 0.0 W/m2 OVC
22:49 51.8 °F /  11 °C 51.8 °F /  11 °C 29.77 in /  1008 hPa Calm     100 % 0.00 in /  0 mm 0.0 W/m2 OVC
22:54 51.8 °F /  11 °C 51.8 °F /  11 °C 29.77 in /  1008 hPa Calm     100 % 0.00 in /  0 mm 0.0 W/m2 OVC
22:59 51.8 °F /  11 °C 51.8 °F /  11 °C 29.77 in /  1008 hPa Calm     100 % 0.00 in /  0 mm 0.0 W/m2 OVC
23:04 51.8 °F /  11 °C 51.8 °F /  11 °C 29.77 in /  1008 hPa Calm     100 % 0.00 in /  0 mm 0.0 W/m2 OVC
23:09 51.8 °F /  11 °C 51.8 °F /  11 °C 29.77 in /  1008 hPa Calm     100 % 0.00 in /  0 mm 0.0 W/m2 OVC
23:19 51.6 °F /  10.9 °C 51.6 °F /  10.9 °C 29.77 in /  1008 hPa Calm     100 % 0.00 in /  0 mm 0.0 W/m2 OVC
Wether-Above
Compliments of Weather Underground - 2.25 mb
Welcome to Weather-Above
Cheddleton weather station supplies various organisations with data from our weather station one of them is the weather Underground this information displayed here is coming from the weather Underground server 

If any information is used please acknowledge the source to www weather-above.com or weather Underground